CheckWX is a tool to help pilots better visualize weather data.  It is not intended as a substitute for an official pre-flight weather briefing.

23:08:42 UTC

KHTS TAF
Tri-State / Milton J Ferguson Field Airport
Huntington, West Virginia, USA
KHTS 042323Z 0500/0524 00000KT P6SM SKC FM050600 00000KT P6SM BKN100 FM051300 00000KT P6SM BKN045

Apr-5@
00:00 UTC

Apr-5 @ 00:00 UTC

Apr-5@
06:00 UTC

Apr-5 @ 06:00 UTC

TAF KHTS 042323Z 0500/0524 00000KT P6SM SKC

Expired

Cloud Levels
  • Clear skies

Apr-5@
06:00 UTC

Apr-5 @ 06:00 UTC

Apr-5@
13:00 UTC

Apr-5 @ 13:00 UTC

FM050600 00000KT P6SM BKN100

Expired

Cloud Levels
  • Broken at 10,000' AGL

Apr-5@
13:00 UTC

Apr-5 @ 13:00 UTC

Apr-6@
00:00 UTC

Apr-6 @ 00:00 UTC

FM051300 00000KT P6SM BKN045

From

From Standard forecast or significant change

Cloud Levels
  • Broken at 4,500' AGL